createdAt,value
2023-02-25T00:02:03.080Z,27.40
2023-02-25T00:05:08.006Z,27.70
2023-02-25T00:08:18.755Z,28.10
2023-02-25T00:11:30.422Z,28.30
2023-02-25T00:17:56.027Z,28.20
2023-02-25T00:21:08.525Z,27.60
2023-02-25T00:24:22.223Z,27.40
2023-02-25T00:27:33.506Z,27.50
2023-02-25T00:31:05.960Z,27.40
2023-02-25T00:34:16.284Z,27.50
2023-02-25T00:37:25.971Z,28.20
2023-02-25T00:40:37.630Z,28.90
2023-02-25T00:43:47.426Z,28.90
2023-02-25T00:46:59.207Z,29.00
2023-02-25T00:50:10.059Z,29.50
2023-02-25T00:53:17.459Z,29.30
2023-02-25T00:56:26.143Z,28.90
2023-02-25T00:59:37.253Z,28.40
2023-02-25T01:02:48.607Z,28.20
2023-02-25T01:05:58.536Z,28.20
2023-02-25T01:09:08.863Z,28.40
2023-02-25T01:12:18.841Z,28.60
2023-02-25T01:15:28.474Z,28.90
2023-02-25T01:18:40.227Z,28.90
2023-02-25T01:21:51.790Z,28.80
2023-02-25T01:25:04.909Z,28.50
2023-02-25T01:28:16.132Z,28.10
2023-02-25T01:31:31.028Z,28.00
2023-02-25T01:34:41.911Z,28.10
2023-02-25T01:37:53.844Z,28.30
2023-02-25T01:41:06.427Z,28.70
2023-02-25T01:44:16.569Z,28.80
2023-02-25T01:47:30.077Z,28.70
2023-02-25T01:50:44.270Z,28.70
2023-02-25T01:53:53.509Z,28.70
2023-02-25T01:57:05.964Z,28.80
2023-02-25T02:00:22.072Z,28.80
2023-02-25T02:03:32.796Z,28.70
2023-02-25T02:06:45.530Z,28.60
2023-02-25T02:09:58.310Z,28.60
2023-02-25T02:13:08.065Z,28.70
2023-02-25T02:17:00.659Z,28.70
2023-02-25T02:20:16.093Z,28.60
2023-02-25T02:23:36.490Z,28.60
2023-02-25T02:27:15.323Z,28.70
2023-02-25T02:30:33.810Z,28.70
2023-02-25T02:33:46.527Z,28.70
2023-02-25T02:37:03.306Z,28.60
2023-02-25T02:40:29.045Z,28.80
2023-02-25T02:43:45.982Z,28.90
2023-02-25T02:46:56.230Z,29.00
2023-02-25T02:50:07.812Z,28.90
2023-02-25T02:53:19.209Z,28.90
2023-02-25T02:56:30.199Z,28.90
2023-02-25T02:59:45.306Z,29.00
2023-02-25T03:02:55.500Z,29.00
2023-02-25T03:06:07.673Z,28.80
2023-02-25T03:09:18.372Z,28.80
2023-02-25T03:12:29.481Z,28.90
2023-02-25T03:15:42.716Z,28.90
2023-02-25T03:18:54.435Z,28.90
2023-02-25T03:22:07.502Z,28.80
2023-02-25T03:25:17.680Z,28.80
2023-02-25T03:28:31.600Z,28.80
2023-02-25T03:31:43.608Z,28.80
2023-02-25T03:34:55.652Z,28.80
2023-02-25T03:38:09.448Z,28.70
2023-02-25T03:41:20.924Z,28.80
2023-02-25T03:44:32.687Z,28.80
2023-02-25T03:47:44.390Z,28.80
2023-02-25T03:51:00.921Z,28.70
2023-02-25T03:54:09.507Z,28.70
2023-02-25T03:57:21.053Z,28.80
2023-02-25T04:00:31.979Z,28.80
2023-02-25T04:03:42.340Z,28.80
2023-02-25T04:06:52.249Z,28.70
2023-02-25T04:10:03.384Z,28.70
2023-02-25T04:13:15.401Z,28.80
2023-02-25T04:16:26.461Z,28.80
2023-02-25T04:19:39.905Z,28.70
2023-02-25T04:22:45.436Z,28.60
2023-02-25T04:25:57.074Z,28.60
2023-02-25T04:29:08.024Z,28.60
2023-02-25T04:32:19.549Z,28.60
2023-02-25T04:35:29.404Z,28.50
2023-02-25T04:38:40.908Z,28.50
2023-02-25T04:41:49.876Z,28.50
2023-02-25T04:45:03.360Z,28.60
2023-02-25T04:48:16.449Z,28.60
2023-02-25T04:51:27.213Z,28.60
2023-02-25T04:54:37.670Z,28.50
2023-02-25T04:57:50.030Z,28.50
2023-02-25T05:01:03.162Z,28.60
2023-02-25T05:04:12.290Z,28.60
2023-02-25T05:07:25.235Z,28.60
2023-02-25T05:10:33.387Z,28.60
2023-02-25T05:13:45.020Z,28.60
2023-02-25T05:16:56.107Z,28.70
2023-02-25T05:20:11.465Z,28.80
2023-02-25T05:26:37.117Z,28.50
2023-02-25T05:29:49.037Z,28.60
2023-02-25T05:32:59.676Z,28.70
2023-02-25T05:36:11.815Z,28.70
2023-02-25T05:39:20.911Z,28.60
2023-02-25T05:42:32.711Z,28.60
2023-02-25T05:45:43.968Z,28.70
2023-02-25T05:48:56.636Z,28.70
2023-02-25T05:52:06.757Z,28.80
2023-02-25T05:55:18.346Z,28.90
2023-02-25T05:58:29.905Z,28.70
2023-02-25T06:01:39.332Z,28.90
2023-02-25T06:04:50.578Z,28.80
2023-02-25T06:07:59.182Z,28.70
2023-02-25T06:11:09.232Z,28.70
2023-02-25T06:14:17.838Z,28.70
2023-02-25T06:17:26.877Z,28.80
2023-02-25T06:20:35.903Z,28.90
2023-02-25T06:23:47.429Z,29.00
2023-02-25T06:26:55.732Z,28.80
2023-02-25T06:30:05.700Z,28.80
2023-02-25T06:33:16.652Z,28.90
2023-02-25T06:36:27.601Z,28.90
2023-02-25T06:39:38.626Z,28.90
2023-02-25T06:42:49.077Z,29.00
2023-02-25T06:46:01.739Z,29.10
2023-02-25T06:49:13.736Z,29.20
2023-02-25T06:52:23.378Z,29.10
2023-02-25T06:55:32.636Z,28.90
2023-02-25T06:58:43.457Z,29.10
2023-02-25T07:01:56.126Z,29.00
2023-02-25T07:05:07.892Z,28.90
2023-02-25T07:08:20.546Z,29.00
2023-02-25T07:11:38.740Z,29.20
2023-02-25T07:14:50.375Z,29.20
2023-02-25T07:18:00.940Z,29.20
2023-02-25T07:21:13.799Z,29.10
2023-02-25T07:24:24.707Z,29.10
2023-02-25T07:27:37.811Z,29.10
2023-02-25T07:30:51.456Z,29.00
2023-02-25T07:34:03.900Z,28.90
2023-02-25T07:37:16.890Z,29.10
2023-02-25T07:40:24.884Z,29.20
2023-02-25T07:43:35.050Z,29.20
2023-02-25T07:46:43.896Z,29.30
2023-02-25T07:49:53.720Z,29.20
2023-02-25T07:53:06.082Z,29.10
2023-02-25T07:56:18.717Z,29.10
2023-02-25T07:59:30.753Z,29.20
2023-02-25T08:02:44.597Z,29.00
2023-02-25T08:05:57.559Z,29.10
2023-02-25T08:09:08.472Z,29.20
2023-02-25T08:12:18.498Z,29.30
2023-02-25T08:15:30.914Z,29.40
2023-02-25T08:18:42.857Z,29.30
2023-02-25T08:21:51.648Z,29.10
2023-02-25T08:25:04.997Z,29.20
2023-02-25T08:28:13.636Z,29.30
2023-02-25T08:31:24.908Z,29.10
2023-02-25T08:34:35.904Z,29.20
2023-02-25T08:37:47.694Z,29.30
2023-02-25T08:41:01.182Z,29.40
2023-02-25T08:44:10.033Z,29.40
2023-02-25T08:47:21.148Z,29.30
2023-02-25T08:50:32.929Z,29.20
2023-02-25T08:53:43.832Z,29.20
2023-02-25T08:56:58.515Z,29.20
2023-02-25T09:00:11.123Z,29.10
2023-02-25T09:03:23.259Z,29.30
2023-02-25T09:06:30.932Z,29.40
2023-02-25T09:09:45.986Z,29.40
2023-02-25T09:12:57.513Z,29.50
2023-02-25T09:16:09.569Z,29.40
2023-02-25T09:19:20.763Z,29.20
2023-02-25T09:22:34.791Z,29.30
2023-02-25T09:25:45.862Z,29.20
2023-02-25T09:28:58.556Z,29.10
2023-02-25T09:32:07.953Z,29.30
2023-02-25T09:35:21.404Z,29.40
2023-02-25T09:38:30.638Z,29.50
2023-02-25T09:41:50.237Z,29.50
2023-02-25T09:45:03.325Z,29.40
2023-02-25T09:48:17.000Z,29.20
2023-02-25T09:51:30.316Z,29.20
2023-02-25T09:54:41.368Z,29.20
2023-02-25T09:57:54.990Z,29.20
2023-02-25T10:01:12.039Z,29.40
2023-02-25T10:04:24.830Z,29.40
2023-02-25T10:07:39.517Z,29.50
2023-02-25T10:10:53.445Z,29.50
2023-02-25T10:14:06.568Z,29.40
2023-02-25T10:17:18.503Z,29.20
2023-02-25T10:20:52.955Z,29.30
2023-02-25T10:24:17.052Z,29.20
2023-02-25T10:27:32.642Z,29.20
2023-02-25T10:30:48.115Z,29.40
2023-02-25T10:34:01.203Z,29.50
2023-02-25T10:37:08.782Z,29.60
2023-02-25T10:40:21.336Z,29.50
2023-02-25T10:43:32.623Z,29.40
2023-02-25T10:46:44.724Z,29.30
2023-02-25T10:50:15.542Z,29.20
2023-02-25T10:53:24.325Z,29.20
2023-02-25T10:56:35.528Z,29.20
2023-02-25T10:59:46.628Z,29.30
2023-02-25T11:02:56.797Z,29.50
2023-02-25T11:06:23.135Z,29.50
2023-02-25T11:09:39.319Z,29.60
2023-02-25T11:12:54.860Z,29.50
2023-02-25T11:16:06.107Z,29.30
2023-02-25T11:19:20.327Z,29.30
2023-02-25T11:22:34.844Z,29.30
2023-02-25T11:25:45.322Z,29.30
2023-02-25T11:28:57.443Z,29.40
2023-02-25T11:32:14.030Z,29.50
2023-02-25T11:35:24.478Z,29.60
2023-02-25T11:38:36.200Z,29.60
2023-02-25T11:41:48.986Z,29.40
2023-02-25T11:45:04.968Z,29.30
2023-02-25T11:48:20.838Z,29.30
2023-02-25T11:51:33.534Z,29.30
2023-02-25T11:54:44.421Z,29.30
2023-02-25T11:58:03.903Z,29.40
2023-02-25T12:01:18.023Z,29.50
2023-02-25T12:04:47.229Z,29.60
2023-02-25T12:08:13.646Z,29.60
2023-02-25T12:15:47.493Z,29.80
2023-02-25T12:19:15.309Z,29.80
2023-02-25T12:22:55.836Z,29.80
2023-02-25T12:26:07.079Z,29.90
2023-02-25T12:29:30.980Z,29.90
2023-02-25T12:32:58.582Z,30.00
2023-02-25T12:40:02.371Z,30.00
2023-02-25T12:43:23.876Z,30.10
2023-02-25T12:46:53.647Z,30.00
2023-02-25T12:50:34.207Z,30.40
2023-02-25T12:53:51.080Z,31.00
2023-02-25T12:57:36.719Z,31.00
2023-02-25T13:01:23.908Z,31.10
2023-02-25T13:04:53.056Z,30.40
2023-02-25T13:08:23.055Z,30.10
2023-02-25T13:12:09.466Z,30.10
2023-02-25T13:15:01.024Z,31.00
2023-02-25T13:18:19.455Z,31.10
2023-02-25T13:21:45.159Z,31.20
2023-02-25T13:24:56.970Z,31.20
2023-02-25T13:28:27.455Z,31.10
2023-02-25T13:31:42.738Z,30.40
2023-02-25T13:34:51.453Z,30.50
2023-02-25T13:38:07.809Z,30.60
2023-02-25T13:41:38.539Z,30.40
2023-02-25T13:45:16.574Z,30.90
2023-02-25T13:52:31.189Z,31.50
2023-02-25T13:55:59.362Z,32.10
2023-02-25T13:59:38.820Z,31.20
2023-02-25T14:03:25.203Z,30.60
2023-02-25T14:06:45.083Z,30.70
2023-02-25T14:09:59.995Z,30.90
2023-02-25T14:13:23.275Z,31.10
2023-02-25T14:17:04.828Z,31.70
2023-02-25T14:20:28.706Z,31.50
2023-02-25T14:23:49.453Z,31.50
2023-02-25T14:27:06.778Z,31.50
2023-02-25T14:30:23.417Z,31.10
2023-02-25T14:34:01.361Z,30.60
2023-02-25T14:37:34.095Z,30.50
2023-02-25T14:40:51.104Z,30.50
2023-02-25T14:44:06.370Z,30.70
2023-02-25T14:47:18.665Z,31.60
2023-02-25T14:50:30.433Z,31.30
2023-02-25T14:54:27.455Z,31.30
2023-02-25T14:57:53.500Z,31.40
2023-02-25T15:01:52.303Z,31.40
2023-02-25T15:05:26.597Z,30.80
2023-02-25T15:12:40.503Z,30.60
2023-02-25T15:16:11.287Z,30.60
2023-02-25T15:19:44.274Z,31.70
2023-02-25T15:23:15.387Z,31.60
2023-02-25T15:26:30.692Z,31.50
2023-02-25T15:30:00.801Z,31.50
2023-02-25T15:33:29.708Z,31.50
2023-02-25T15:36:48.384Z,30.70
2023-02-25T15:40:04.314Z,30.50
2023-02-25T15:43:48.750Z,30.50
2023-02-25T15:47:05.621Z,30.40
2023-02-25T15:50:20.794Z,30.50
2023-02-25T15:53:49.503Z,30.90
2023-02-25T15:57:01.240Z,31.20
2023-02-25T16:00:31.811Z,31.20
2023-02-25T16:03:50.146Z,31.10
2023-02-25T16:07:02.034Z,31.20
2023-02-25T16:10:12.765Z,31.10
2023-02-25T16:13:25.689Z,30.50
2023-02-25T16:16:35.665Z,30.40
2023-02-25T16:19:45.644Z,30.40
2023-02-25T16:22:57.581Z,30.40
2023-02-25T16:26:12.510Z,30.40
2023-02-25T16:29:31.987Z,30.40
2023-02-25T16:32:48.287Z,30.80
2023-02-25T16:36:07.667Z,31.00
2023-02-25T16:39:19.119Z,31.10
2023-02-25T16:42:27.586Z,31.10
2023-02-25T16:45:40.627Z,31.10
2023-02-25T16:48:55.213Z,31.00
2023-02-25T16:52:05.331Z,30.40
2023-02-25T16:55:19.724Z,30.30
2023-02-25T16:58:33.854Z,30.40
2023-02-25T17:01:46.037Z,30.40
2023-02-25T17:04:57.210Z,30.40
2023-02-25T17:08:09.046Z,30.80
2023-02-25T17:11:22.272Z,31.20
2023-02-25T17:14:33.536Z,31.20
2023-02-25T17:17:44.466Z,30.70
2023-02-25T17:20:54.445Z,30.40
2023-02-25T17:24:02.354Z,30.40
2023-02-25T17:27:13.427Z,30.40
2023-02-25T17:30:45.193Z,30.70
2023-02-25T17:33:55.194Z,31.20
2023-02-25T17:37:08.181Z,31.10
2023-02-25T17:40:22.171Z,31.10
2023-02-25T17:43:38.050Z,31.10
2023-02-25T17:46:46.938Z,31.10
2023-02-25T17:49:55.767Z,30.50
2023-02-25T17:53:06.963Z,30.40
2023-02-25T17:56:41.119Z,30.40
2023-02-25T17:59:54.249Z,30.40
2023-02-25T18:03:21.402Z,30.30
2023-02-25T18:06:42.015Z,30.80
2023-02-25T18:09:51.848Z,31.00
2023-02-25T18:13:04.180Z,31.10
2023-02-25T18:16:45.630Z,31.00
2023-02-25T18:19:56.361Z,31.00
2023-02-25T18:23:08.716Z,30.40
2023-02-25T18:26:20.874Z,30.30
2023-02-25T18:29:30.883Z,30.40
2023-02-25T18:32:42.636Z,30.30
2023-02-25T18:35:55.742Z,30.50
2023-02-25T18:39:07.232Z,30.80
2023-02-25T18:42:19.894Z,30.90
2023-02-25T18:45:31.610Z,31.00
2023-02-25T18:48:40.126Z,30.70
2023-02-25T18:51:49.433Z,30.40
2023-02-25T18:54:58.555Z,30.40
2023-02-25T18:58:09.388Z,30.40
2023-02-25T19:01:25.316Z,30.30
2023-02-25T19:04:37.957Z,30.80
2023-02-25T19:07:47.103Z,31.00
2023-02-25T19:10:59.844Z,31.10
2023-02-25T19:14:12.190Z,31.00
2023-02-25T19:17:22.089Z,31.00
2023-02-25T19:20:31.948Z,30.50
2023-02-25T19:23:43.497Z,30.40
2023-02-25T19:26:55.208Z,30.40
2023-02-25T19:30:05.190Z,30.30
2023-02-25T19:33:15.769Z,30.40
2023-02-25T19:36:26.907Z,30.90
2023-02-25T19:39:38.409Z,30.90
2023-02-25T19:42:46.676Z,30.90
2023-02-25T19:45:59.524Z,30.50
2023-02-25T19:49:07.565Z,30.30
2023-02-25T19:52:19.230Z,30.20
2023-02-25T19:55:29.613Z,30.30
2023-02-25T19:58:40.491Z,30.30
2023-02-25T20:01:52.262Z,30.40
2023-02-25T20:05:03.623Z,30.90
2023-02-25T20:08:14.928Z,31.00
2023-02-25T20:11:25.875Z,31.00
2023-02-25T20:14:35.672Z,31.00
2023-02-25T20:17:45.017Z,30.90
2023-02-25T20:20:54.680Z,30.70
2023-02-25T20:24:07.457Z,30.90
2023-02-25T20:27:17.371Z,30.20
2023-02-25T20:30:28.246Z,30.20
2023-02-25T20:33:38.535Z,30.20
2023-02-25T20:36:50.939Z,30.20
2023-02-25T20:40:01.514Z,30.10
2023-02-25T20:43:14.345Z,30.40
2023-02-25T20:46:27.641Z,30.90
2023-02-25T20:49:34.332Z,31.00
2023-02-25T20:52:46.541Z,30.90
2023-02-25T20:55:58.059Z,30.40
2023-02-25T20:59:10.654Z,30.30
2023-02-25T21:02:22.372Z,30.30
2023-02-25T21:05:30.409Z,30.60
2023-02-25T21:08:41.219Z,30.90
2023-02-25T21:11:53.793Z,31.00
2023-02-25T21:15:04.115Z,31.00
2023-02-25T21:18:14.246Z,30.60
2023-02-25T21:21:28.256Z,30.40
2023-02-25T21:24:38.955Z,30.40
2023-02-25T21:27:48.529Z,30.30
2023-02-25T21:31:03.971Z,30.70
2023-02-25T21:34:17.216Z,30.90
2023-02-25T21:37:27.352Z,31.10
2023-02-25T21:40:36.795Z,31.10
2023-02-25T21:43:44.142Z,30.60
2023-02-25T21:46:54.827Z,30.50
2023-02-25T21:50:03.947Z,30.50
2023-02-25T21:53:13.737Z,31.00
2023-02-25T21:56:25.517Z,31.00
2023-02-25T21:59:35.367Z,31.20
2023-02-25T22:02:44.982Z,31.20
2023-02-25T22:05:53.030Z,31.20
2023-02-25T22:09:05.230Z,30.90
2023-02-25T22:12:17.328Z,30.70
2023-02-25T22:15:29.021Z,30.70
2023-02-25T22:18:41.345Z,30.80
2023-02-25T22:21:51.397Z,30.80
2023-02-25T22:25:00.239Z,31.10
2023-02-25T22:28:10.951Z,31.30
2023-02-25T22:31:21.191Z,31.30
2023-02-25T22:34:33.397Z,31.30
2023-02-25T22:37:47.675Z,31.30
2023-02-25T22:40:57.442Z,31.40
2023-02-25T22:44:07.652Z,31.40
2023-02-25T22:47:19.249Z,31.20
2023-02-25T22:50:30.714Z,30.90
2023-02-25T22:53:41.757Z,31.00
2023-02-25T22:56:52.424Z,31.20
2023-02-25T23:00:05.746Z,31.20
2023-02-25T23:03:15.510Z,31.30
2023-02-25T23:06:34.322Z,31.20
2023-02-25T23:09:40.405Z,31.50
2023-02-25T23:12:51.328Z,31.50
2023-02-25T23:16:04.008Z,31.60
2023-02-25T23:19:15.574Z,31.70
2023-02-25T23:22:27.391Z,31.70
2023-02-25T23:25:38.672Z,31.30
2023-02-25T23:28:51.868Z,31.20
2023-02-25T23:32:00.003Z,31.30
2023-02-25T23:35:11.299Z,31.40
2023-02-25T23:38:22.542Z,31.50
2023-02-25T23:41:35.212Z,31.40
2023-02-25T23:44:47.030Z,31.30
2023-02-25T23:47:55.677Z,31.40
2023-02-25T23:51:10.482Z,31.60
2023-02-25T23:54:23.167Z,31.70
2023-02-25T23:57:35.553Z,31.80
